Time;durP1;ratioP1;P1;durP2;ratioP2;P2;SDS_P1;SDS_P2;PMS_P1;PMS_P2;Temp;Humidity;BMP_temperature;BMP_pressure;BME280_temperature;BME280_humidity;BME280_pressure;Samples;Min_cycle;Max_cycle;Signal;HPM_P1;HPM_P2
2022/09/10 00:00:24;;;;;;;0.50;0.50;;;;;;;;;;4484007;28;20110;-71
2022/09/10 00:02:35;;;;;;;0.50;0.50;;;;;;;;;;4483552;28;20424;-73
2022/09/10 00:04:45;;;;;;;0.43;0.40;;;;;;;;;;4483128;28;20102;-74
2022/09/10 00:06:56;;;;;;;0.50;0.50;;;;;;;;;;4486857;28;20038;-73
2022/09/10 00:09:06;;;;;;;1.10;0.45;;;;;;;;;;4483469;28;20030;-73
2022/09/10 00:11:19;;;;;;;0.50;0.50;;;;;;;;;;4486290;28;20121;-73
2022/09/10 00:13:29;;;;;;;0.70;0.60;;;;;;;;;;4487170;28;20038;-73
2022/09/10 00:15:45;;;;;;;0.73;0.50;;;;;;;;;;4485205;28;32561;-73
2022/09/10 00:17:56;;;;;;;0.75;0.50;;;;;;;;;;4488367;28;20050;-73
2022/09/10 00:20:08;;;;;;;0.50;0.50;;;;;;;;;;4486883;28;20069;-73
2022/09/10 00:22:19;;;;;;;1.08;0.70;;;;;;;;;;4486857;28;20041;-71
2022/09/10 00:24:30;;;;;;;0.77;0.50;;;;;;;;;;4488258;28;20038;-73
2022/09/10 00:26:40;;;;;;;0.50;0.50;;;;;;;;;;4487695;28;20800;-74
2022/09/10 00:28:53;;;;;;;0.57;0.57;;;;;;;;;;4487380;28;20034;-73
2022/09/10 00:31:03;;;;;;;0.90;0.57;;;;;;;;;;4471986;28;20043;-74
2022/09/10 00:33:15;;;;;;;0.55;0.55;;;;;;;;;;4475208;28;20065;-74
2022/09/10 00:35:31;;;;;;;0.50;0.50;;;;;;;;;;4487895;28;20045;-74
2022/09/10 00:37:41;;;;;;;0.55;0.50;;;;;;;;;;4487707;28;20070;-74
2022/09/10 00:39:52;;;;;;;1.30;0.70;;;;;;;;;;4487239;28;20667;-74
2022/09/10 00:42:03;;;;;;;0.60;0.60;;;;;;;;;;4487106;28;20030;-74
2022/09/10 00:44:36;;;;;;;0.73;0.57;;;;;;;;;;4490193;28;20038;-72
2022/09/10 00:46:49;;;;;;;0.80;0.70;;;;;;;;;;4491222;28;20084;-74
2022/09/10 00:49:02;;;;;;;0.50;0.50;;;;;;;;;;4488714;28;20595;-74
2022/09/10 00:51:13;;;;;;;0.60;0.60;;;;;;;;;;4485009;28;20034;-74
2022/09/10 00:53:25;;;;;;;0.73;0.60;;;;;;;;;;4473819;28;20026;-73
2022/09/10 00:55:38;;;;;;;0.70;0.70;;;;;;;;;;4485601;28;20678;-74
2022/09/10 00:57:53;;;;;;;0.88;0.77;;;;;;;;;;4483930;28;20163;-74
2022/09/10 01:00:09;;;;;;;2.28;0.70;;;;;;;;;;4487732;28;20043;-75
2022/09/10 01:02:20;;;;;;;0.88;0.68;;;;;;;;;;4485343;28;20134;-73
2022/09/10 01:04:31;;;;;;;0.75;0.60;;;;;;;;;;4499897;28;20037;-73
2022/09/10 01:06:44;;;;;;;0.77;0.70;;;;;;;;;;4487339;28;20113;-74
2022/09/10 01:08:56;;;;;;;1.08;0.70;;;;;;;;;;4488889;28;20140;-73
2022/09/10 01:11:11;;;;;;;0.70;0.70;;;;;;;;;;4474254;28;20035;-74
2022/09/10 01:13:35;;;;;;;1.05;0.60;;;;;;;;;;4485812;28;20137;-74
2022/09/10 01:15:59;;;;;;;0.82;0.80;;;;;;;;;;4481743;28;20038;-74
2022/09/10 01:18:39;;;;;;;0.93;0.60;;;;;;;;;;4491545;28;20033;-73
2022/09/10 01:20:59;;;;;;;0.98;0.68;;;;;;;;;;4483649;28;20039;-73
2022/09/10 01:23:44;;;;;;;0.77;0.70;;;;;;;;;;4471928;28;20112;-73
2022/09/10 01:26:13;;;;;;;1.40;0.80;;;;;;;;;;4499751;28;20500;-73
2022/09/10 01:29:01;;;;;;;1.20;0.68;;;;;;;;;;4490031;28;20028;-73
2022/09/10 01:31:30;;;;;;;0.60;0.60;;;;;;;;;;4479876;28;20042;-73
2022/09/10 01:33:46;;;;;;;0.90;0.70;;;;;;;;;;4487554;28;20030;-73
2022/09/10 01:36:05;;;;;;;1.13;0.73;;;;;;;;;;4484111;28;20069;-73
2022/09/10 01:38:21;;;;;;;0.80;0.60;;;;;;;;;;4465972;28;21371;-73
2022/09/10 01:40:32;;;;;;;0.98;0.65;;;;;;;;;;4486509;28;20034;-73
2022/09/10 01:42:48;;;;;;;1.35;0.85;;;;;;;;;;4484748;28;20042;-73
2022/09/10 01:44:59;;;;;;;0.82;0.60;;;;;;;;;;4490416;28;20045;-73
2022/09/10 01:48:00;;;;;;;0.93;0.77;;;;;;;;;;4474069;28;20027;-74
2022/09/10 01:50:13;;;;;;;1.08;0.88;;;;;;;;;;4482202;28;20531;-73
2022/09/10 01:52:30;;;;;;;0.70;0.70;;;;;;;;;;4484172;28;20049;-74
2022/09/10 01:54:55;;;;;;;0.85;0.73;;;;;;;;;;4484025;28;20674;-73
2022/09/10 01:57:22;;;;;;;1.50;0.90;;;;;;;;;;4486530;28;20555;-74
2022/09/10 02:00:01;;;;;;;1.13;0.75;;;;;;;;;;4484510;28;20046;-74
2022/09/10 02:02:21;;;;;;;1.20;0.80;;;;;;;;;;4491605;28;20567;-74
2022/09/10 02:04:32;;;;;;;1.30;0.60;;;;;;;;;;4481605;28;20030;-74
2022/09/10 02:06:46;;;;;;;0.73;0.60;;;;;;;;;;4470488;28;20030;-73
2022/09/10 02:08:58;;;;;;;0.68;0.68;;;;;;;;;;4486700;28;21004;-73
2022/09/10 02:11:11;;;;;;;0.88;0.70;;;;;;;;;;4487729;28;20030;-73
2022/09/10 02:13:24;;;;;;;1.13;0.80;;;;;;;;;;4502354;28;20041;-73
2022/09/10 02:15:55;;;;;;;1.52;0.80;;;;;;;;;;4476194;28;20932;-73
2022/09/10 02:18:08;;;;;;;0.93;0.70;;;;;;;;;;4486268;28;20150;-73
2022/09/10 02:20:54;;;;;;;1.05;0.73;;;;;;;;;;4486120;28;20022;-73
2022/09/10 02:23:06;;;;;;;1.17;0.88;;;;;;;;;;4485674;28;20042;-73
2022/09/10 02:25:16;;;;;;;0.73;0.70;;;;;;;;;;4482651;28;20157;-72
2022/09/10 02:27:28;;;;;;;0.80;0.80;;;;;;;;;;4483018;28;20089;-72
2022/09/10 02:29:41;;;;;;;1.52;0.70;;;;;;;;;;4500272;28;20117;-72
2022/09/10 02:31:53;;;;;;;0.88;0.60;;;;;;;;;;4474431;28;20748;-73
2022/09/10 02:34:03;;;;;;;0.93;0.60;;;;;;;;;;4484404;28;20231;-73
2022/09/10 02:36:14;;;;;;;0.63;0.60;;;;;;;;;;4485487;28;20042;-73
2022/09/10 02:38:25;;;;;;;1.10;0.50;;;;;;;;;;4483371;28;20891;-73
2022/09/10 02:40:38;;;;;;;0.63;0.50;;;;;;;;;;4469706;28;20158;-73
2022/09/10 02:42:48;;;;;;;0.90;0.60;;;;;;;;;;4500144;28;20042;-73
2022/09/10 02:45:04;;;;;;;0.52;0.40;;;;;;;;;;4473342;28;20607;-72
2022/09/10 02:47:15;;;;;;;0.75;0.55;;;;;;;;;;4483665;28;20038;-73
2022/09/10 02:49:27;;;;;;;0.85;0.65;;;;;;;;;;4487966;28;20233;-73
2022/09/10 02:51:40;;;;;;;0.65;0.55;;;;;;;;;;4484771;28;20069;-73
2022/09/10 02:53:51;;;;;;;0.73;0.50;;;;;;;;;;4489050;28;20212;-73
2022/09/10 02:56:02;;;;;;;0.60;0.50;;;;;;;;;;4487167;28;20088;-74
2022/09/10 02:58:13;;;;;;;0.73;0.60;;;;;;;;;;4489779;28;20972;-73
2022/09/10 03:00:24;;;;;;;0.70;0.70;;;;;;;;;;4461289;28;20040;-73
2022/09/10 03:02:35;;;;;;;0.85;0.65;;;;;;;;;;4482946;28;20035;-74
2022/09/10 03:04:46;;;;;;;0.65;0.50;;;;;;;;;;4488861;28;20068;-72
2022/09/10 03:06:56;;;;;;;0.95;0.70;;;;;;;;;;4481464;28;20049;-73
2022/09/10 03:09:07;;;;;;;1.15;0.60;;;;;;;;;;4499799;28;29998;-73
2022/09/10 03:11:17;;;;;;;1.05;0.60;;;;;;;;;;4486918;28;20049;-72
2022/09/10 03:13:28;;;;;;;1.90;0.70;;;;;;;;;;4485810;28;20038;-73
2022/09/10 03:15:42;;;;;;;1.38;0.50;;;;;;;;;;4483922;28;20023;-72
2022/09/10 03:17:52;;;;;;;0.77;0.60;;;;;;;;;;4483570;28;21239;-74
2022/09/10 03:20:03;;;;;;;0.60;0.50;;;;;;;;;;4468233;28;20023;-74
2022/09/10 03:22:14;;;;;;;0.75;0.60;;;;;;;;;;4485842;28;20605;-74
2022/09/10 03:24:24;;;;;;;0.60;0.52;;;;;;;;;;4482413;28;20121;-73
2022/09/10 03:26:35;;;;;;;0.90;0.70;;;;;;;;;;4485649;28;20035;-74
2022/09/10 03:28:47;;;;;;;1.48;0.65;;;;;;;;;;4498526;28;20034;-74
2022/09/10 03:31:00;;;;;;;0.57;0.50;;;;;;;;;;4499043;28;20567;-74
2022/09/10 03:33:11;;;;;;;0.80;0.70;;;;;;;;;;4499853;28;20607;-72
2022/09/10 03:38:54;;;;;;;1.67;0.60;;;;;;;;;;4479746;28;20046;-73
2022/09/10 03:41:04;;;;;;;0.77;0.60;;;;;;;;;;4484128;28;20035;-73
2022/09/10 03:43:16;;;;;;;1.20;0.50;;;;;;;;;;4483209;28;20472;-74
2022/09/10 03:45:28;;;;;;;0.88;0.57;;;;;;;;;;4481523;28;20225;-74
2022/09/10 03:47:39;;;;;;;0.68;0.50;;;;;;;;;;4496465;28;20129;-73
2022/09/10 03:49:50;;;;;;;0.73;0.57;;;;;;;;;;4490442;28;20037;-74
2022/09/10 03:52:01;;;;;;;0.77;0.60;;;;;;;;;;4488269;28;20038;-73
2022/09/10 03:54:14;;;;;;;0.90;0.60;;;;;;;;;;4500573;28;20141;-74
2022/09/10 03:56:26;;;;;;;0.55;0.50;;;;;;;;;;4502525;28;20623;-73
2022/09/10 03:58:37;;;;;;;0.70;0.60;;;;;;;;;;4472708;28;20678;-74
2022/09/10 04:00:48;;;;;;;0.60;0.60;;;;;;;;;;4487455;28;20069;-73
2022/09/10 04:02:59;;;;;;;1.70;0.50;;;;;;;;;;4485954;28;20200;-73
2022/09/10 04:05:10;;;;;;;1.08;0.70;;;;;;;;;;4486065;28;20807;-73
2022/09/10 04:07:21;;;;;;;0.98;0.60;;;;;;;;;;4485272;28;20156;-73
2022/09/10 04:09:33;;;;;;;1.15;0.40;;;;;;;;;;4501641;28;20033;-73
2022/09/10 04:11:44;;;;;;;0.95;0.60;;;;;;;;;;4476752;28;20029;-74
2022/09/10 04:13:55;;;;;;;0.77;0.50;;;;;;;;;;4489781;28;20049;-74
2022/09/10 04:16:06;;;;;;;0.70;0.55;;;;;;;;;;4488992;28;20048;-73
2022/09/10 04:18:17;;;;;;;1.08;0.60;;;;;;;;;;4488809;28;20140;-72
2022/09/10 04:20:29;;;;;;;0.85;0.50;;;;;;;;;;4475378;28;20061;-73
2022/09/10 04:22:50;;;;;;;0.85;0.50;;;;;;;;;;4492877;28;20041;-73
2022/09/10 04:25:00;;;;;;;0.82;0.60;;;;;;;;;;4489023;28;20077;-73
2022/09/10 04:27:11;;;;;;;0.40;0.40;;;;;;;;;;4474365;28;20134;-74
2022/09/10 04:29:21;;;;;;;0.65;0.50;;;;;;;;;;4501289;28;20034;-73
2022/09/10 04:31:32;;;;;;;0.80;0.60;;;;;;;;;;4488247;28;20123;-73
2022/09/10 04:33:50;;;;;;;0.73;0.50;;;;;;;;;;4500991;28;20028;-73
2022/09/10 04:36:05;;;;;;;1.33;0.60;;;;;;;;;;4487029;28;20149;-73
2022/09/10 04:38:15;;;;;;;1.40;0.60;;;;;;;;;;4475460;28;20134;-73
2022/09/10 04:40:28;;;;;;;0.65;0.65;;;;;;;;;;4472066;28;20154;-73
2022/09/10 04:42:38;;;;;;;0.60;0.60;;;;;;;;;;4501284;28;20037;-73
2022/09/10 04:44:49;;;;;;;0.90;0.50;;;;;;;;;;4499704;28;20508;-73
2022/09/10 04:46:59;;;;;;;0.50;0.50;;;;;;;;;;4490962;28;20037;-73
2022/09/10 04:49:10;;;;;;;0.50;0.50;;;;;;;;;;4488572;28;20060;-74
2022/09/10 04:51:20;;;;;;;0.52;0.52;;;;;;;;;;4491294;28;20508;-73
2022/09/10 04:53:36;;;;;;;0.60;0.60;;;;;;;;;;4488318;28;20710;-73
2022/09/10 04:55:48;;;;;;;0.98;0.60;;;;;;;;;;4485790;28;20104;-73
2022/09/10 04:57:59;;;;;;;0.80;0.60;;;;;;;;;;4488871;28;21404;-73
2022/09/10 05:00:11;;;;;;;1.30;0.60;;;;;;;;;;4500277;28;20148;-73
2022/09/10 05:02:22;;;;;;;0.90;0.60;;;;;;;;;;4485582;28;20684;-73
2022/09/10 05:04:33;;;;;;;1.05;0.50;;;;;;;;;;4484311;28;20029;-73
2022/09/10 05:06:44;;;;;;;1.05;0.65;;;;;;;;;;4474347;28;20038;-73
2022/09/10 05:08:56;;;;;;;0.80;0.50;;;;;;;;;;4483812;28;20053;-73
2022/09/10 05:11:12;;;;;;;1.13;0.60;;;;;;;;;;4485298;28;20736;-71
2022/09/10 05:13:23;;;;;;;1.50;0.47;;;;;;;;;;4486361;28;20373;-73
2022/09/10 05:15:34;;;;;;;0.90;0.60;;;;;;;;;;4487216;28;20065;-73
2022/09/10 05:17:47;;;;;;;0.75;0.55;;;;;;;;;;4471619;28;20062;-73
2022/09/10 05:19:58;;;;;;;0.90;0.85;;;;;;;;;;4491045;28;20149;-73
2022/09/10 05:22:08;;;;;;;0.95;0.75;;;;;;;;;;4485155;28;20404;-73
2022/09/10 05:24:20;;;;;;;1.02;0.70;;;;;;;;;;4488901;28;20041;-73
2022/09/10 05:26:30;;;;;;;1.05;0.60;;;;;;;;;;4487244;28;20599;-73
2022/09/10 05:28:42;;;;;;;1.27;0.70;;;;;;;;;;4489551;28;20030;-73
2022/09/10 05:30:54;;;;;;;1.20;0.50;;;;;;;;;;4471567;28;21107;-73
2022/09/10 05:33:07;;;;;;;0.73;0.50;;;;;;;;;;4492031;28;20041;-72
2022/09/10 05:35:18;;;;;;;0.85;0.50;;;;;;;;;;4487977;28;20038;-73
2022/09/10 05:37:30;;;;;;;0.70;0.50;;;;;;;;;;4491660;28;20042;-72
2022/09/10 05:39:41;;;;;;;0.93;0.50;;;;;;;;;;4501096;28;20909;-71
2022/09/10 05:41:51;;;;;;;1.27;0.50;;;;;;;;;;4473521;28;20478;-72
2022/09/10 05:44:02;;;;;;;0.77;0.60;;;;;;;;;;4486709;28;20038;-72
2022/09/10 05:46:13;;;;;;;0.65;0.50;;;;;;;;;;4490394;28;20034;-71
2022/09/10 05:48:26;;;;;;;1.17;0.63;;;;;;;;;;4474187;28;20114;-71
2022/09/10 05:50:37;;;;;;;1.02;0.60;;;;;;;;;;4487688;28;20141;-72
2022/09/10 05:52:48;;;;;;;0.85;0.50;;;;;;;;;;4487912;28;20113;-72
2022/09/10 05:54:59;;;;;;;0.80;0.57;;;;;;;;;;4484516;28;20054;-72
2022/09/10 05:57:10;;;;;;;0.43;0.30;;;;;;;;;;4497676;28;20779;-72
2022/09/10 05:59:22;;;;;;;0.50;0.50;;;;;;;;;;4473970;28;20145;-72
2022/09/10 06:01:36;;;;;;;0.70;0.50;;;;;;;;;;4487859;28;20033;-72
2022/09/10 06:03:49;;;;;;;1.08;0.55;;;;;;;;;;4491444;28;20018;-72
2022/09/10 06:06:00;;;;;;;0.57;0.50;;;;;;;;;;4482993;28;20048;-72
2022/09/10 06:08:20;;;;;;;0.73;0.50;;;;;;;;;;4489876;28;20890;-72
2022/09/10 06:10:32;;;;;;;0.43;0.43;;;;;;;;;;4500927;28;20045;-73
2022/09/10 06:12:46;;;;;;;0.57;0.47;;;;;;;;;;4469196;28;20120;-72
2022/09/10 06:14:57;;;;;;;1.55;0.60;;;;;;;;;;4486939;28;20026;-73
2022/09/10 06:17:07;;;;;;;0.85;0.68;;;;;;;;;;4468363;28;20039;-73
2022/09/10 06:19:18;;;;;;;1.20;0.65;;;;;;;;;;4486382;28;20049;-72
2022/09/10 06:21:29;;;;;;;0.60;0.60;;;;;;;;;;4487154;28;20479;-73
2022/09/10 06:23:42;;;;;;;0.63;0.43;;;;;;;;;;4490121;28;20025;-72
2022/09/10 06:26:06;;;;;;;0.95;0.57;;;;;;;;;;4483979;28;20038;-73
2022/09/10 06:28:18;;;;;;;0.60;0.60;;;;;;;;;;4484374;28;20587;-72
2022/09/10 06:30:29;;;;;;;1.10;0.60;;;;;;;;;;4487079;28;20037;-72
2022/09/10 06:32:40;;;;;;;0.98;0.70;;;;;;;;;;4500323;28;20104;-73
2022/09/10 06:34:52;;;;;;;0.50;0.50;;;;;;;;;;4484052;28;20115;-73
2022/09/10 06:37:04;;;;;;;1.00;0.60;;;;;;;;;;4486450;28;20051;-72
2022/09/10 06:39:16;;;;;;;0.57;0.50;;;;;;;;;;4487169;28;20048;-72
2022/09/10 06:41:40;;;;;;;1.70;0.50;;;;;;;;;;4486622;28;20622;-72
2022/09/10 06:43:57;;;;;;;0.82;0.70;;;;;;;;;;4486835;28;20767;-74
2022/09/10 06:46:27;;;;;;;0.45;0.45;;;;;;;;;;4484937;28;20046;-73
2022/09/10 06:48:48;;;;;;;0.60;0.60;;;;;;;;;;4500587;28;20041;-74
2022/09/10 06:51:00;;;;;;;0.98;0.50;;;;;;;;;;4468170;28;20593;-73
2022/09/10 06:53:20;;;;;;;0.63;0.50;;;;;;;;;;4454988;28;20039;-73
2022/09/10 06:55:34;;;;;;;0.70;0.60;;;;;;;;;;4485211;28;20117;-73
2022/09/10 06:57:44;;;;;;;1.95;0.73;;;;;;;;;;4482965;28;20038;-73
2022/09/10 06:59:57;;;;;;;0.75;0.60;;;;;;;;;;4498318;28;20042;-73
2022/09/10 07:02:08;;;;;;;0.75;0.60;;;;;;;;;;4489266;28;20041;-72
2022/09/10 07:04:19;;;;;;;0.50;0.50;;;;;;;;;;4483146;28;20734;-73
2022/09/10 07:06:33;;;;;;;0.90;0.60;;;;;;;;;;4473419;28;20022;-73
2022/09/10 07:08:53;;;;;;;0.80;0.60;;;;;;;;;;4489926;28;20788;-71
2022/09/10 07:11:06;;;;;;;0.70;0.50;;;;;;;;;;4473498;28;20605;-70
2022/09/10 07:13:18;;;;;;;0.50;0.40;;;;;;;;;;4472948;28;20500;-69
2022/09/10 07:15:29;;;;;;;0.45;0.45;;;;;;;;;;4484678;28;20037;-69
2022/09/10 07:17:39;;;;;;;0.75;0.50;;;;;;;;;;4484165;28;20068;-69
2022/09/10 07:19:50;;;;;;;0.63;0.50;;;;;;;;;;4499783;28;20084;-69
2022/09/10 07:22:19;;;;;;;0.50;0.50;;;;;;;;;;4488608;28;20571;-70
2022/09/10 07:24:30;;;;;;;0.52;0.52;;;;;;;;;;4486786;28;21546;-70
2022/09/10 07:26:47;;;;;;;0.63;0.43;;;;;;;;;;4487309;28;20026;-70
2022/09/10 07:28:57;;;;;;;0.55;0.50;;;;;;;;;;4484166;28;20039;-70
2022/09/10 07:31:26;;;;;;;0.77;0.60;;;;;;;;;;4489356;28;20412;-71
2022/09/10 07:33:37;;;;;;;0.50;0.45;;;;;;;;;;4468691;28;20082;-72
2022/09/10 07:35:49;;;;;;;0.47;0.47;;;;;;;;;;4488139;28;20635;-71
2022/09/10 07:37:59;;;;;;;0.95;0.60;;;;;;;;;;4489159;28;20582;-72
2022/09/10 07:40:12;;;;;;;1.85;0.57;;;;;;;;;;4469281;28;20629;-72
2022/09/10 07:42:24;;;;;;;0.50;0.50;;;;;;;;;;4469301;28;20647;-72
2022/09/10 07:44:35;;;;;;;0.50;0.50;;;;;;;;;;4490710;28;20038;-72
2022/09/10 07:46:45;;;;;;;0.40;0.40;;;;;;;;;;4468949;28;20041;-71
2022/09/10 07:48:59;;;;;;;0.40;0.40;;;;;;;;;;4484438;28;20026;-72
2022/09/10 07:51:10;;;;;;;0.57;0.50;;;;;;;;;;4473867;28;20038;-72
2022/09/10 07:53:21;;;;;;;0.88;0.60;;;;;;;;;;4498192;28;20041;-72
2022/09/10 07:55:31;;;;;;;1.10;0.63;;;;;;;;;;4484339;28;20105;-72
2022/09/10 07:57:44;;;;;;;0.68;0.60;;;;;;;;;;4484678;28;20042;-72
2022/09/10 07:59:55;;;;;;;0.50;0.50;;;;;;;;;;4498895;28;20081;-72
2022/09/10 08:02:11;;;;;;;0.65;0.60;;;;;;;;;;4486323;28;20583;-73
2022/09/10 08:04:22;;;;;;;0.80;0.55;;;;;;;;;;4477214;28;20089;-72
2022/09/10 08:06:34;;;;;;;1.90;0.85;;;;;;;;;;4485850;28;20039;-71
2022/09/10 08:08:46;;;;;;;1.27;0.80;;;;;;;;;;4485785;28;20034;-73
2022/09/10 08:11:16;;;;;;;0.80;0.70;;;;;;;;;;4488161;28;20041;-73
2022/09/10 08:13:28;;;;;;;1.00;0.70;;;;;;;;;;4481854;28;20633;-73
2022/09/10 08:15:43;;;;;;;0.95;0.80;;;;;;;;;;4485694;28;20022;-72
2022/09/10 08:17:54;;;;;;;1.15;0.80;;;;;;;;;;4499593;28;20096;-73
2022/09/10 08:20:07;;;;;;;0.95;0.90;;;;;;;;;;4482051;28;20584;-73
2022/09/10 08:22:19;;;;;;;1.00;0.90;;;;;;;;;;4486366;28;20030;-73
2022/09/10 08:24:36;;;;;;;0.90;0.80;;;;;;;;;;4486097;28;20847;-71
2022/09/10 08:26:47;;;;;;;1.60;1.30;;;;;;;;;;4483086;28;20039;-74
2022/09/10 08:28:57;;;;;;;1.48;1.20;;;;;;;;;;4486904;28;20601;-74
2022/09/10 08:31:11;;;;;;;1.35;1.20;;;;;;;;;;4470061;28;20121;-74
2022/09/10 08:33:30;;;;;;;1.60;1.35;;;;;;;;;;4473898;28;20134;-74
2022/09/10 08:35:40;;;;;;;1.48;1.25;;;;;;;;;;4492134;28;20142;-69
2022/09/10 08:37:51;;;;;;;2.17;1.50;;;;;;;;;;4487113;28;20138;-68
2022/09/10 08:40:04;;;;;;;1.65;1.35;;;;;;;;;;4492102;28;20073;-67
2022/09/10 08:42:29;;;;;;;1.77;1.50;;;;;;;;;;4485760;28;20109;-67
2022/09/10 08:44:52;;;;;;;1.85;1.50;;;;;;;;;;4484451;28;20043;-71
2022/09/10 08:47:20;;;;;;;1.17;1.02;;;;;;;;;;4502380;28;20041;-70
2022/09/10 08:49:35;;;;;;;2.78;1.30;;;;;;;;;;4485644;28;20479;-70
2022/09/10 08:51:49;;;;;;;1.45;1.33;;;;;;;;;;4499632;28;20038;-70
2022/09/10 08:54:07;;;;;;;1.88;1.00;;;;;;;;;;4503224;28;21446;-70
2022/09/10 08:56:21;;;;;;;1.75;1.30;;;;;;;;;;4486506;28;20105;-70
2022/09/10 08:58:37;;;;;;;1.48;1.38;;;;;;;;;;4482483;28;20534;-71
2022/09/10 09:00:53;;;;;;;1.33;1.10;;;;;;;;;;4487015;28;20026;-71
2022/09/10 09:03:11;;;;;;;2.72;1.40;;;;;;;;;;4472188;28;20039;-71
2022/09/10 09:05:27;;;;;;;1.80;1.50;;;;;;;;;;4500766;28;20128;-71
2022/09/10 09:07:39;;;;;;;1.83;1.38;;;;;;;;;;4475821;28;20328;-72
2022/09/10 09:09:51;;;;;;;1.45;1.30;;;;;;;;;;4501181;28;20038;-70
2022/09/10 09:12:07;;;;;;;2.45;1.70;;;;;;;;;;4487225;28;20034;-70
2022/09/10 09:14:44;;;;;;;2.17;1.70;;;;;;;;;;4501318;28;20086;-71
2022/09/10 09:17:23;;;;;;;1.70;1.48;;;;;;;;;;4469671;28;20592;-71
2022/09/10 09:19:44;;;;;;;2.17;1.55;;;;;;;;;;4485061;28;21028;-71
2022/09/10 09:22:03;;;;;;;1.98;1.67;;;;;;;;;;4488518;28;20063;-71
2022/09/10 09:24:22;;;;;;;1.80;1.60;;;;;;;;;;4501225;28;20042;-71
2022/09/10 09:26:36;;;;;;;1.98;1.60;;;;;;;;;;4492017;28;20034;-70
2022/09/10 09:29:12;;;;;;;1.58;1.30;;;;;;;;;;4486248;28;20208;-71
2022/09/10 09:31:36;;;;;;;2.40;1.70;;;;;;;;;;4484707;28;20108;-71
2022/09/10 09:33:55;;;;;;;1.98;1.55;;;;;;;;;;4484398;28;21502;-71
2022/09/10 09:36:06;;;;;;;1.77;1.50;;;;;;;;;;4473969;28;20097;-71
2022/09/10 09:38:26;;;;;;;2.35;1.65;;;;;;;;;;4484425;28;20080;-70
2022/09/10 09:40:46;;;;;;;2.80;1.73;;;;;;;;;;4460929;28;20042;-69
2022/09/10 09:43:02;;;;;;;1.92;1.63;;;;;;;;;;4486739;28;20106;-71
2022/09/10 09:45:36;;;;;;;1.48;1.38;;;;;;;;;;4474980;28;20039;-72
2022/09/10 09:47:48;;;;;;;2.65;1.63;;;;;;;;;;4484971;28;20045;-68
2022/09/10 09:49:59;;;;;;;1.98;1.40;;;;;;;;;;4471112;28;20027;-68
2022/09/10 09:52:20;;;;;;;1.40;1.30;;;;;;;;;;4485611;28;20634;-68
2022/09/10 09:54:32;;;;;;;1.30;1.20;;;;;;;;;;4462760;28;20086;-68
2022/09/10 09:56:49;;;;;;;1.48;1.33;;;;;;;;;;4489902;28;20547;-68
2022/09/10 09:59:07;;;;;;;1.85;1.50;;;;;;;;;;4487233;28;20038;-68
2022/09/10 10:01:22;;;;;;;1.50;1.33;;;;;;;;;;4484817;28;20034;-69
2022/09/10 10:03:50;;;;;;;1.50;1.40;;;;;;;;;;4483966;28;20618;-69
2022/09/10 10:06:05;;;;;;;2.28;1.23;;;;;;;;;;4487587;28;20037;-70
2022/09/10 10:08:27;;;;;;;1.77;1.30;;;;;;;;;;4485373;28;20796;-70
2022/09/10 10:10:37;;;;;;;1.52;1.40;;;;;;;;;;4485665;28;20035;-71
2022/09/10 10:12:48;;;;;;;1.20;1.10;;;;;;;;;;4482977;28;20038;-71
2022/09/10 10:15:01;;;;;;;2.55;1.40;;;;;;;;;;4489097;28;20118;-70
2022/09/10 10:17:24;;;;;;;1.20;1.10;;;;;;;;;;4461670;28;20137;-70
2022/09/10 10:19:37;;;;;;;1.20;1.10;;;;;;;;;;4484856;28;20034;-71
2022/09/10 10:21:47;;;;;;;1.40;1.20;;;;;;;;;;4486870;28;20041;-71
2022/09/10 10:23:58;;;;;;;1.67;1.25;;;;;;;;;;4490300;28;20027;-71
2022/09/10 10:26:29;;;;;;;2.65;1.88;;;;;;;;;;4469548;28;20085;-70
2022/09/10 10:28:44;;;;;;;1.40;1.30;;;;;;;;;;4467181;28;21263;-70
2022/09/10 10:30:58;;;;;;;1.13;1.02;;;;;;;;;;4485883;28;21005;-71
2022/09/10 10:33:17;;;;;;;1.85;1.27;;;;;;;;;;4485015;28;20042;-69
2022/09/10 10:35:33;;;;;;;1.42;1.02;;;;;;;;;;4488281;28;20037;-70
2022/09/10 10:38:06;;;;;;;1.95;1.30;;;;;;;;;;4484353;28;20047;-72
2022/09/10 10:40:25;;;;;;;1.20;1.08;;;;;;;;;;4464585;28;20054;-68
2022/09/10 10:42:50;;;;;;;1.20;1.10;;;;;;;;;;4485482;28;20133;-69
2022/09/10 10:45:09;;;;;;;1.10;1.00;;;;;;;;;;4484737;28;20039;-71
2022/09/10 10:47:35;;;;;;;1.58;1.10;;;;;;;;;;4485064;28;20751;-71
2022/09/10 10:50:00;;;;;;;1.58;1.10;;;;;;;;;;4484459;28;20074;-71
2022/09/10 10:52:23;;;;;;;1.52;1.23;;;;;;;;;;4485046;28;20049;-72
2022/09/10 10:54:57;;;;;;;1.58;1.20;;;;;;;;;;4485110;28;20038;-73
2022/09/10 10:57:16;;;;;;;1.83;1.15;;;;;;;;;;4482785;28;20112;-72
2022/09/10 10:59:49;;;;;;;1.80;1.50;;;;;;;;;;4485603;28;20522;-71
2022/09/10 11:02:28;;;;;;;2.53;1.90;;;;;;;;;;4485285;28;20042;-71
2022/09/10 11:04:49;;;;;;;2.13;1.40;;;;;;;;;;4483755;28;20193;-71
2022/09/10 11:07:32;;;;;;;1.77;1.38;;;;;;;;;;4471771;28;20109;-72
2022/09/10 11:09:46;;;;;;;1.27;1.17;;;;;;;;;;4486401;28;20125;-71
2022/09/10 11:12:00;;;;;;;1.50;1.35;;;;;;;;;;4485593;28;20034;-72
2022/09/10 11:14:40;;;;;;;1.70;1.60;;;;;;;;;;4485438;28;20039;-71
2022/09/10 11:16:54;;;;;;;1.48;1.30;;;;;;;;;;4484420;28;20046;-72
2022/09/10 11:19:10;;;;;;;1.52;1.38;;;;;;;;;;4468462;28;20481;-72
2022/09/10 11:21:26;;;;;;;1.97;1.40;;;;;;;;;;4485124;28;20949;-71
2022/09/10 11:23:38;;;;;;;1.40;1.30;;;;;;;;;;4484213;28;20247;-72
2022/09/10 11:25:56;;;;;;;1.35;1.20;;;;;;;;;;4470555;28;20094;-72
2022/09/10 11:28:16;;;;;;;1.63;1.40;;;;;;;;;;4483899;28;20041;-71
2022/09/10 11:30:27;;;;;;;2.05;1.40;;;;;;;;;;4486183;28;20042;-72
2022/09/10 11:32:59;;;;;;;1.48;1.30;;;;;;;;;;4485564;28;20643;-74
2022/09/10 11:35:28;;;;;;;1.35;1.25;;;;;;;;;;4485804;28;20137;-73
2022/09/10 11:38:10;;;;;;;1.67;1.38;;;;;;;;;;4485242;28;20050;-73
2022/09/10 11:40:34;;;;;;;1.48;1.38;;;;;;;;;;4485307;28;20129;-72
2022/09/10 11:42:51;;;;;;;2.28;1.50;;;;;;;;;;4473836;28;20022;-72
2022/09/10 11:45:07;;;;;;;1.20;1.10;;;;;;;;;;4490760;28;20088;-72
2022/09/10 11:47:22;;;;;;;1.40;1.30;;;;;;;;;;4485722;28;20039;-72
2022/09/10 11:49:53;;;;;;;1.38;1.27;;;;;;;;;;4487055;28;20524;-72
2022/09/10 11:52:03;;;;;;;1.40;1.20;;;;;;;;;;4482677;28;20164;-73
2022/09/10 11:54:25;;;;;;;2.97;1.40;;;;;;;;;;4485584;28;20077;-72
2022/09/10 11:56:46;;;;;;;1.50;1.40;;;;;;;;;;4484081;28;20043;-73
2022/09/10 11:59:27;;;;;;;2.22;1.60;;;;;;;;;;4485792;28;20047;-73
2022/09/10 12:01:50;;;;;;;1.50;1.40;;;;;;;;;;4484816;28;20041;-72
2022/09/10 12:04:09;;;;;;;1.40;1.30;;;;;;;;;;4500870;28;20796;-73
2022/09/10 12:06:25;;;;;;;1.48;1.38;;;;;;;;;;4486145;28;20514;-72
2022/09/10 12:08:58;;;;;;;1.50;1.40;;;;;;;;;;4486859;28;20046;-71
2022/09/10 12:11:18;;;;;;;1.73;1.52;;;;;;;;;;4486267;28;20034;-72
2022/09/10 12:13:28;;;;;;;1.40;1.30;;;;;;;;;;4486388;28;20042;-71
2022/09/10 12:15:39;;;;;;;1.63;1.50;;;;;;;;;;4484828;28;20038;-71
2022/09/10 12:18:17;;;;;;;1.52;1.40;;;;;;;;;;4487925;28;20105;-71
2022/09/10 12:20:34;;;;;;;2.00;1.70;;;;;;;;;;4488235;28;20034;-71
2022/09/10 12:22:46;;;;;;;2.00;1.40;;;;;;;;;;4487239;28;20073;-71
2022/09/10 12:25:01;;;;;;;2.17;1.85;;;;;;;;;;4471281;28;20835;-73
2022/09/10 12:27:17;;;;;;;1.90;1.50;;;;;;;;;;4488531;28;20041;-71
2022/09/10 12:29:39;;;;;;;1.60;1.50;;;;;;;;;;4485103;28;20647;-73
2022/09/10 12:32:08;;;;;;;1.60;1.50;;;;;;;;;;4485632;28;20045;-72
2022/09/10 12:34:19;;;;;;;1.63;1.52;;;;;;;;;;4486760;28;20602;-72
2022/09/10 12:36:29;;;;;;;2.63;1.80;;;;;;;;;;4484832;28;20400;-73
2022/09/10 12:38:47;;;;;;;2.55;1.80;;;;;;;;;;4484224;28;20134;-72
2022/09/10 12:40:57;;;;;;;2.20;1.90;;;;;;;;;;4490299;28;20034;-72
2022/09/10 12:43:39;;;;;;;1.88;1.70;;;;;;;;;;4487237;28;20576;-72
2022/09/10 12:46:08;;;;;;;2.03;1.83;;;;;;;;;;4487139;28;20034;-72
2022/09/10 12:48:19;;;;;;;2.63;1.77;;;;;;;;;;4485078;28;20481;-73
2022/09/10 12:50:32;;;;;;;1.70;1.60;;;;;;;;;;4491105;28;20130;-73
2022/09/10 12:52:49;;;;;;;1.55;1.42;;;;;;;;;;4488421;28;20207;-71
2022/09/10 12:55:27;;;;;;;1.85;1.75;;;;;;;;;;4492601;28;20042;-72
2022/09/10 12:57:41;;;;;;;1.83;1.50;;;;;;;;;;4487497;28;20583;-72
2022/09/10 13:00:24;;;;;;;2.67;1.60;;;;;;;;;;4489075;28;20082;-71
2022/09/10 13:02:48;;;;;;;1.70;1.50;;;;;;;;;;4488594;28;20158;-72
2022/09/10 13:05:30;;;;;;;1.92;1.55;;;;;;;;;;4488704;28;20044;-71
2022/09/10 13:07:42;;;;;;;2.08;1.52;;;;;;;;;;4488800;28;20581;-71
2022/09/10 13:10:04;;;;;;;1.80;1.50;;;;;;;;;;4485659;28;20666;-71
2022/09/10 13:12:19;;;;;;;1.58;1.48;;;;;;;;;;4487541;28;20125;-71
2022/09/10 13:14:37;;;;;;;1.35;1.25;;;;;;;;;;4476501;28;20038;-71
2022/09/10 13:16:47;;;;;;;1.63;1.17;;;;;;;;;;4485620;28;20835;-71
2022/09/10 13:19:24;;;;;;;1.30;1.20;;;;;;;;;;4487420;28;20089;-71
2022/09/10 13:21:34;;;;;;;1.83;1.08;;;;;;;;;;4472799;28;20051;-71
2022/09/10 13:23:47;;;;;;;1.30;1.20;;;;;;;;;;4486619;28;20039;-69
2022/09/10 13:26:38;;;;;;;1.27;1.10;;;;;;;;;;4486007;28;20568;-72
2022/09/10 13:28:49;;;;;;;1.13;1.02;;;;;;;;;;4486378;28;20584;-71
2022/09/10 13:31:20;;;;;;;1.13;1.00;;;;;;;;;;4488630;28;20078;-71
2022/09/10 13:33:33;;;;;;;0.90;0.80;;;;;;;;;;4486423;28;20562;-71
2022/09/10 13:35:55;;;;;;;1.20;0.98;;;;;;;;;;4485945;28;20035;-72
2022/09/10 13:38:17;;;;;;;1.15;1.05;;;;;;;;;;4485308;28;20047;-72
2022/09/10 13:40:52;;;;;;;1.10;1.00;;;;;;;;;;4486837;28;20038;-71